sensor_id;sensor_type;location;lat;lon;timestamp;pressure;altitude;pressure_sealevel;temperature;humidity
19457;BME280;9867;48.094;11.478;2022-10-22T00:00:59;94892.53;;;14.58;100.00
19457;BME280;9867;48.094;11.478;2022-10-22T00:03:27;94896.13;;;14.57;100.00
19457;BME280;9867;48.094;11.478;2022-10-22T00:05:55;94892.53;;;14.58;100.00
19457;BME280;9867;48.094;11.478;2022-10-22T00:08:23;94902.22;;;14.91;100.00
19457;BME280;9867;48.094;11.478;2022-10-22T00:10:50;94912.34;;;14.81;100.00
19457;BME280;9867;48.094;11.478;2022-10-22T00:13:19;94907.13;;;14.64;100.00
19457;BME280;9867;48.094;11.478;2022-10-22T00:15:46;94905.09;;;14.43;100.00
19457;BME280;9867;48.094;11.478;2022-10-22T00:18:16;94898.13;;;14.43;100.00
19457;BME280;9867;48.094;11.478;2022-10-22T00:20:43;94905.19;;;14.36;100.00
19457;BME280;9867;48.094;11.478;2022-10-22T00:23:11;94909.34;;;14.25;100.00
19457;BME280;9867;48.094;11.478;2022-10-22T00:25:39;94901.47;;;14.20;100.00
19457;BME280;9867;48.094;11.478;2022-10-22T00:28:07;94909.22;;;14.20;100.00
19457;BME280;9867;48.094;11.478;2022-10-22T00:30:36;94914.03;;;14.05;100.00
19457;BME280;9867;48.094;11.478;2022-10-22T00:33:04;94931.41;;;13.98;100.00
19457;BME280;9867;48.094;11.478;2022-10-22T00:35:33;94948.00;;;13.90;100.00
19457;BME280;9867;48.094;11.478;2022-10-22T00:38:02;94951.25;;;13.86;100.00
19457;BME280;9867;48.094;11.478;2022-10-22T00:40:30;94952.56;;;13.77;100.00
19457;BME280;9867;48.094;11.478;2022-10-22T00:42:58;94956.47;;;13.68;100.00
19457;BME280;9867;48.094;11.478;2022-10-22T00:45:27;94961.44;;;13.51;100.00
19457;BME280;9867;48.094;11.478;2022-10-22T00:47:59;94973.63;;;13.44;100.00
19457;BME280;9867;48.094;11.478;2022-10-22T00:50:31;94959.25;;;13.36;100.00
19457;BME280;9867;48.094;11.478;2022-10-22T00:53:03;94957.13;;;13.33;100.00
19457;BME280;9867;48.094;11.478;2022-10-22T00:55:33;94950.34;;;13.20;100.00
19457;BME280;9867;48.094;11.478;2022-10-22T00:58:01;94944.84;;;13.17;100.00
19457;BME280;9867;48.094;11.478;2022-10-22T01:00:30;94936.69;;;13.20;100.00
19457;BME280;9867;48.094;11.478;2022-10-22T01:02:58;94932.78;;;13.11;100.00
19457;BME280;9867;48.094;11.478;2022-10-22T01:05:28;94929.00;;;13.13;100.00
19457;BME280;9867;48.094;11.478;2022-10-22T01:07:57;94934.38;;;13.12;100.00
19457;BME280;9867;48.094;11.478;2022-10-22T01:10:53;94935.22;;;13.06;100.00
19457;BME280;9867;48.094;11.478;2022-10-22T01:13:32;94930.63;;;13.08;100.00
19457;BME280;9867;48.094;11.478;2022-10-22T01:16:08;94925.28;;;13.09;100.00
19457;BME280;9867;48.094;11.478;2022-10-22T01:18:44;94918.41;;;13.03;100.00
19457;BME280;9867;48.094;11.478;2022-10-22T01:21:22;94905.81;;;13.13;100.00
19457;BME280;9867;48.094;11.478;2022-10-22T01:27:08;94915.31;;;13.31;100.00
19457;BME280;9867;48.094;11.478;2022-10-22T01:29:46;94904.09;;;13.25;100.00
19457;BME280;9867;48.094;11.478;2022-10-22T01:32:16;94901.09;;;13.10;100.00
19457;BME280;9867;48.094;11.478;2022-10-22T01:34:49;94895.13;;;13.16;100.00
19457;BME280;9867;48.094;11.478;2022-10-22T01:37:19;94905.03;;;13.13;100.00
19457;BME280;9867;48.094;11.478;2022-10-22T01:39:49;94894.38;;;13.09;100.00
19457;BME280;9867;48.094;11.478;2022-10-22T01:42:18;94917.97;;;13.06;100.00
19457;BME280;9867;48.094;11.478;2022-10-22T01:44:47;94936.06;;;12.99;100.00
19457;BME280;9867;48.094;11.478;2022-10-22T01:47:21;94923.56;;;13.03;100.00
19457;BME280;9867;48.094;11.478;2022-10-22T01:50:03;94919.09;;;12.98;100.00
19457;BME280;9867;48.094;11.478;2022-10-22T01:52:49;94906.09;;;13.05;100.00
19457;BME280;9867;48.094;11.478;2022-10-22T01:55:27;94914.63;;;13.06;100.00
19457;BME280;9867;48.094;11.478;2022-10-22T01:58:05;94912.41;;;13.09;100.00
19457;BME280;9867;48.094;11.478;2022-10-22T02:00:39;94921.28;;;13.13;100.00
19457;BME280;9867;48.094;11.478;2022-10-22T02:03:13;94915.03;;;13.03;100.00
19457;BME280;9867;48.094;11.478;2022-10-22T02:05:52;94918.47;;;13.15;100.00
19457;BME280;9867;48.094;11.478;2022-10-22T02:08:22;94925.63;;;13.13;100.00
19457;BME280;9867;48.094;11.478;2022-10-22T02:10:54;94929.59;;;13.15;100.00
19457;BME280;9867;48.094;11.478;2022-10-22T02:13:26;94924.56;;;13.02;100.00
19457;BME280;9867;48.094;11.478;2022-10-22T02:15:57;94933.84;;;13.03;100.00
19457;BME280;9867;48.094;11.478;2022-10-22T02:18:27;94932.66;;;13.06;100.00
19457;BME280;9867;48.094;11.478;2022-10-22T02:20:57;94939.44;;;13.00;100.00
19457;BME280;9867;48.094;11.478;2022-10-22T02:23:27;94949.66;;;13.07;100.00
19457;BME280;9867;48.094;11.478;2022-10-22T02:25:59;94951.69;;;13.05;100.00
19457;BME280;9867;48.094;11.478;2022-10-22T02:28:33;94958.81;;;13.03;100.00
19457;BME280;9867;48.094;11.478;2022-10-22T02:31:10;94968.78;;;12.99;100.00
19457;BME280;9867;48.094;11.478;2022-10-22T02:33:43;94963.50;;;12.94;100.00
19457;BME280;9867;48.094;11.478;2022-10-22T02:36:12;94964.84;;;12.96;100.00
19457;BME280;9867;48.094;11.478;2022-10-22T02:38:41;94991.59;;;12.95;100.00
19457;BME280;9867;48.094;11.478;2022-10-22T02:41:09;94984.25;;;12.99;100.00
19457;BME280;9867;48.094;11.478;2022-10-22T02:43:41;94991.09;;;13.05;100.00
19457;BME280;9867;48.094;11.478;2022-10-22T02:46:10;94989.03;;;12.95;100.00
19457;BME280;9867;48.094;11.478;2022-10-22T02:48:38;94979.31;;;12.97;100.00
19457;BME280;9867;48.094;11.478;2022-10-22T02:51:06;94974.50;;;13.01;100.00
19457;BME280;9867;48.094;11.478;2022-10-22T02:53:34;94971.06;;;13.07;100.00
19457;BME280;9867;48.094;11.478;2022-10-22T02:56:02;94975.34;;;13.13;100.00
19457;BME280;9867;48.094;11.478;2022-10-22T02:58:30;94967.69;;;13.07;100.00
19457;BME280;9867;48.094;11.478;2022-10-22T03:00:58;94978.16;;;13.12;100.00
19457;BME280;9867;48.094;11.478;2022-10-22T03:03:27;94979.91;;;13.18;100.00
19457;BME280;9867;48.094;11.478;2022-10-22T03:05:55;94983.31;;;13.12;100.00
19457;BME280;9867;48.094;11.478;2022-10-22T03:08:23;94972.28;;;13.05;100.00
19457;BME280;9867;48.094;11.478;2022-10-22T03:10:51;94981.88;;;12.97;100.00
19457;BME280;9867;48.094;11.478;2022-10-22T03:13:18;94972.22;;;12.93;100.00
19457;BME280;9867;48.094;11.478;2022-10-22T03:15:47;94966.03;;;12.76;100.00
19457;BME280;9867;48.094;11.478;2022-10-22T03:18:15;94977.69;;;12.78;100.00
19457;BME280;9867;48.094;11.478;2022-10-22T03:20:44;94986.22;;;12.79;100.00
19457;BME280;9867;48.094;11.478;2022-10-22T03:23:14;94982.94;;;12.72;100.00
19457;BME280;9867;48.094;11.478;2022-10-22T03:25:45;95016.28;;;12.60;100.00
19457;BME280;9867;48.094;11.478;2022-10-22T03:28:15;95008.06;;;12.51;100.00
19457;BME280;9867;48.094;11.478;2022-10-22T03:30:44;95015.09;;;12.38;100.00
19457;BME280;9867;48.094;11.478;2022-10-22T03:33:12;95015.59;;;12.28;100.00
19457;BME280;9867;48.094;11.478;2022-10-22T03:35:43;95014.50;;;12.36;100.00
19457;BME280;9867;48.094;11.478;2022-10-22T03:38:14;95009.31;;;12.42;100.00
19457;BME280;9867;48.094;11.478;2022-10-22T03:40:43;95018.25;;;12.40;100.00
19457;BME280;9867;48.094;11.478;2022-10-22T03:43:12;95031.56;;;12.30;100.00
19457;BME280;9867;48.094;11.478;2022-10-22T03:45:40;95043.44;;;12.31;100.00
19457;BME280;9867;48.094;11.478;2022-10-22T03:48:09;95051.94;;;12.32;100.00
19457;BME280;9867;48.094;11.478;2022-10-22T03:50:36;95053.63;;;12.19;100.00
19457;BME280;9867;48.094;11.478;2022-10-22T03:53:04;95063.28;;;12.24;100.00
19457;BME280;9867;48.094;11.478;2022-10-22T03:55:35;95059.34;;;12.21;100.00
19457;BME280;9867;48.094;11.478;2022-10-22T03:58:03;95055.84;;;12.09;100.00
19457;BME280;9867;48.094;11.478;2022-10-22T04:00:32;95056.22;;;12.13;100.00
19457;BME280;9867;48.094;11.478;2022-10-22T04:03:00;95054.03;;;12.16;100.00
19457;BME280;9867;48.094;11.478;2022-10-22T04:05:28;95055.06;;;12.09;100.00
19457;BME280;9867;48.094;11.478;2022-10-22T04:07:56;95066.91;;;12.10;100.00
19457;BME280;9867;48.094;11.478;2022-10-22T04:10:24;95052.50;;;12.09;100.00
19457;BME280;9867;48.094;11.478;2022-10-22T04:12:54;95050.97;;;12.01;100.00
19457;BME280;9867;48.094;11.478;2022-10-22T04:15:21;95049.78;;;12.04;100.00
19457;BME280;9867;48.094;11.478;2022-10-22T04:17:52;95045.03;;;12.01;100.00
19457;BME280;9867;48.094;11.478;2022-10-22T04:20:20;95044.25;;;12.00;100.00
19457;BME280;9867;48.094;11.478;2022-10-22T04:22:48;95052.56;;;12.02;100.00
19457;BME280;9867;48.094;11.478;2022-10-22T04:25:16;95041.72;;;11.93;100.00
19457;BME280;9867;48.094;11.478;2022-10-22T04:27:44;95050.81;;;11.96;100.00
19457;BME280;9867;48.094;11.478;2022-10-22T04:30:13;95037.94;;;11.96;100.00
19457;BME280;9867;48.094;11.478;2022-10-22T04:32:41;95054.78;;;11.92;100.00
19457;BME280;9867;48.094;11.478;2022-10-22T04:35:09;95052.00;;;11.93;100.00
19457;BME280;9867;48.094;11.478;2022-10-22T04:37:37;95036.75;;;11.99;100.00
19457;BME280;9867;48.094;11.478;2022-10-22T04:40:06;95032.25;;;11.87;100.00
19457;BME280;9867;48.094;11.478;2022-10-22T04:42:34;95023.50;;;11.95;100.00
19457;BME280;9867;48.094;11.478;2022-10-22T04:45:03;95031.03;;;11.97;100.00
19457;BME280;9867;48.094;11.478;2022-10-22T04:47:32;95036.88;;;11.79;100.00
19457;BME280;9867;48.094;11.478;2022-10-22T04:50:00;95054.81;;;11.85;100.00
19457;BME280;9867;48.094;11.478;2022-10-22T04:52:27;95050.25;;;11.87;100.00
19457;BME280;9867;48.094;11.478;2022-10-22T04:54:55;95051.03;;;11.88;100.00
19457;BME280;9867;48.094;11.478;2022-10-22T04:57:23;95050.38;;;11.99;100.00
19457;BME280;9867;48.094;11.478;2022-10-22T04:59:51;95043.09;;;11.96;100.00
19457;BME280;9867;48.094;11.478;2022-10-22T05:02:19;95049.03;;;11.90;100.00
19457;BME280;9867;48.094;11.478;2022-10-22T05:04:48;95053.16;;;11.98;100.00
19457;BME280;9867;48.094;11.478;2022-10-22T05:07:16;95054.34;;;12.02;100.00
19457;BME280;9867;48.094;11.478;2022-10-22T05:09:43;95062.47;;;11.99;100.00
19457;BME280;9867;48.094;11.478;2022-10-22T05:12:11;95051.38;;;11.98;100.00
19457;BME280;9867;48.094;11.478;2022-10-22T05:14:39;95048.03;;;11.98;100.00
19457;BME280;9867;48.094;11.478;2022-10-22T05:17:10;95050.97;;;12.01;100.00
19457;BME280;9867;48.094;11.478;2022-10-22T05:19:38;95058.47;;;12.03;100.00
19457;BME280;9867;48.094;11.478;2022-10-22T05:22:07;95062.47;;;11.99;100.00
19457;BME280;9867;48.094;11.478;2022-10-22T05:24:35;95050.25;;;11.87;100.00
19457;BME280;9867;48.094;11.478;2022-10-22T05:27:03;95060.91;;;11.91;100.00
19457;BME280;9867;48.094;11.478;2022-10-22T05:29:31;95067.03;;;11.90;100.00
19457;BME280;9867;48.094;11.478;2022-10-22T05:31:59;95065.84;;;11.92;100.00
19457;BME280;9867;48.094;11.478;2022-10-22T05:34:27;95071.81;;;11.86;100.00
19457;BME280;9867;48.094;11.478;2022-10-22T05:36:55;95074.38;;;11.86;100.00
19457;BME280;9867;48.094;11.478;2022-10-22T05:39:24;95064.13;;;11.73;100.00
19457;BME280;9867;48.094;11.478;2022-10-22T05:41:52;95082.50;;;11.83;100.00
19457;BME280;9867;48.094;11.478;2022-10-22T05:44:20;95079.13;;;11.83;100.00
19457;BME280;9867;48.094;11.478;2022-10-22T05:46:48;95076.75;;;11.81;100.00
19457;BME280;9867;48.094;11.478;2022-10-22T05:49:16;95077.34;;;11.83;100.00
19457;BME280;9867;48.094;11.478;2022-10-22T05:51:43;95084.03;;;11.91;100.00
19457;BME280;9867;48.094;11.478;2022-10-22T05:54:15;95067.03;;;11.90;100.00
19457;BME280;9867;48.094;11.478;2022-10-22T05:56:45;95054.00;;;11.85;100.00
19457;BME280;9867;48.094;11.478;2022-10-22T05:59:13;95040.97;;;11.86;100.00
19457;BME280;9867;48.094;11.478;2022-10-22T06:01:41;95056.75;;;11.90;100.00
19457;BME280;9867;48.094;11.478;2022-10-22T06:04:11;95075.91;;;11.94;100.00
19457;BME280;9867;48.094;11.478;2022-10-22T06:06:42;95071.75;;;12.00;100.00
19457;BME280;9867;48.094;11.478;2022-10-22T06:09:15;95080.84;;;12.02;100.00
19457;BME280;9867;48.094;11.478;2022-10-22T06:11:46;95077.81;;;12.05;100.00
19457;BME280;9867;48.094;11.478;2022-10-22T06:14:14;95081.56;;;12.09;100.00
19457;BME280;9867;48.094;11.478;2022-10-22T06:16:42;95073.31;;;12.01;100.00
19457;BME280;9867;48.094;11.478;2022-10-22T06:19:11;95080.97;;;12.07;100.00
19457;BME280;9867;48.094;11.478;2022-10-22T06:21:39;95077.63;;;12.07;100.00
19457;BME280;9867;48.094;11.478;2022-10-22T06:24:08;95086.09;;;12.14;100.00
19457;BME280;9867;48.094;11.478;2022-10-22T06:26:36;95097.97;;;12.15;100.00
19457;BME280;9867;48.094;11.478;2022-10-22T06:29:06;95099.53;;;12.16;100.00
19457;BME280;9867;48.094;11.478;2022-10-22T06:31:34;95100.00;;;12.38;100.00
19457;BME280;9867;48.094;11.478;2022-10-22T06:34:03;95116.63;;;12.35;100.00
19457;BME280;9867;48.094;11.478;2022-10-22T06:36:32;95107.84;;;12.49;100.00
19457;BME280;9867;48.094;11.478;2022-10-22T06:39:00;95132.66;;;12.69;100.00
19457;BME280;9867;48.094;11.478;2022-10-22T06:41:28;95124.72;;;12.70;100.00
19457;BME280;9867;48.094;11.478;2022-10-22T06:43:56;95132.22;;;12.72;100.00
19457;BME280;9867;48.094;11.478;2022-10-22T06:46:27;95141.03;;;12.82;100.00
19457;BME280;9867;48.094;11.478;2022-10-22T06:48:57;95134.59;;;12.73;100.00
19457;BME280;9867;48.094;11.478;2022-10-22T06:51:26;95126.09;;;12.73;100.00
19457;BME280;9867;48.094;11.478;2022-10-22T06:53:54;95114.25;;;12.65;100.00
19457;BME280;9867;48.094;11.478;2022-10-22T06:56:24;95116.47;;;12.61;100.00
19457;BME280;9867;48.094;11.478;2022-10-22T06:58:54;95126.28;;;12.71;100.00
19457;BME280;9867;48.094;11.478;2022-10-22T07:01:24;95141.03;;;12.57;100.00
19457;BME280;9867;48.094;11.478;2022-10-22T07:03:54;95145.72;;;12.67;100.00
19457;BME280;9867;48.094;11.478;2022-10-22T07:06:24;95144.94;;;12.67;100.00
19457;BME280;9867;48.094;11.478;2022-10-22T07:08:53;95161.69;;;12.76;100.00
19457;BME280;9867;48.094;11.478;2022-10-22T07:11:23;95160.34;;;12.73;100.00
19457;BME280;9867;48.094;11.478;2022-10-22T07:13:53;95177.91;;;12.76;100.00
19457;BME280;9867;48.094;11.478;2022-10-22T07:16:21;95173.22;;;12.73;100.00
19457;BME280;9867;48.094;11.478;2022-10-22T07:18:59;95188.78;;;12.78;100.00
19457;BME280;9867;48.094;11.478;2022-10-22T07:21:27;95186.28;;;12.72;100.00
19457;BME280;9867;48.094;11.478;2022-10-22T07:23:59;95202.41;;;12.85;100.00
19457;BME280;9867;48.094;11.478;2022-10-22T07:26:27;95201.66;;;12.78;100.00
19457;BME280;9867;48.094;11.478;2022-10-22T07:28:58;95219.44;;;12.86;100.00
19457;BME280;9867;48.094;11.478;2022-10-22T07:31:30;95224.91;;;12.72;100.00
19457;BME280;9867;48.094;11.478;2022-10-22T07:33:59;95211.56;;;12.81;100.00
19457;BME280;9867;48.094;11.478;2022-10-22T07:36:29;95223.25;;;13.09;100.00
19457;BME280;9867;48.094;11.478;2022-10-22T07:38:58;95223.03;;;13.17;100.00
19457;BME280;9867;48.094;11.478;2022-10-22T07:41:27;95229.13;;;13.47;100.00
19457;BME280;9867;48.094;11.478;2022-10-22T07:43:56;95226.00;;;13.20;100.00
19457;BME280;9867;48.094;11.478;2022-10-22T07:46:24;95240.94;;;13.55;100.00
19457;BME280;9867;48.094;11.478;2022-10-22T07:48:53;95253.44;;;13.76;100.00
19457;BME280;9867;48.094;11.478;2022-10-22T07:51:23;95259.72;;;14.05;100.00
19457;BME280;9867;48.094;11.478;2022-10-22T07:53:51;95261.00;;;14.32;100.00
19457;BME280;9867;48.094;11.478;2022-10-22T07:56:18;95266.59;;;14.48;100.00
19457;BME280;9867;48.094;11.478;2022-10-22T07:58:46;95273.97;;;14.62;100.00
19457;BME280;9867;48.094;11.478;2022-10-22T08:01:14;95278.41;;;14.74;100.00
19457;BME280;9867;48.094;11.478;2022-10-22T08:03:43;95279.84;;;14.70;100.00
19457;BME280;9867;48.094;11.478;2022-10-22T08:06:12;95284.34;;;14.74;100.00
19457;BME280;9867;48.094;11.478;2022-10-22T08:08:43;95287.09;;;14.91;100.00
19457;BME280;9867;48.094;11.478;2022-10-22T08:11:12;95286.16;;;14.74;100.00
19457;BME280;9867;48.094;11.478;2022-10-22T08:13:40;95292.19;;;14.97;100.00
19457;BME280;9867;48.094;11.478;2022-10-22T08:16:11;95289.25;;;14.46;100.00
19457;BME280;9867;48.094;11.478;2022-10-22T08:18:39;95295.63;;;14.43;100.00
19457;BME280;9867;48.094;11.478;2022-10-22T08:21:07;95297.34;;;14.31;100.00
19457;BME280;9867;48.094;11.478;2022-10-22T08:23:35;95302.03;;;14.59;100.00
19457;BME280;9867;48.094;11.478;2022-10-22T08:26:04;95305.03;;;14.56;100.00
19457;BME280;9867;48.094;11.478;2022-10-22T08:28:32;95315.78;;;14.34;100.00
19457;BME280;9867;48.094;11.478;2022-10-22T08:31:02;95311.94;;;14.19;100.00
19457;BME280;9867;48.094;11.478;2022-10-22T08:33:33;95315.63;;;14.29;100.00
19457;BME280;9867;48.094;11.478;2022-10-22T08:36:05;95326.53;;;14.31;100.00
19457;BME280;9867;48.094;11.478;2022-10-22T08:38:33;95318.16;;;14.54;100.00
19457;BME280;9867;48.094;11.478;2022-10-22T08:41:09;95319.94;;;14.72;100.00
19457;BME280;9867;48.094;11.478;2022-10-22T08:44:01;95333.50;;;14.86;100.00
19457;BME280;9867;48.094;11.478;2022-10-22T08:46:45;95328.53;;;14.84;100.00
19457;BME280;9867;48.094;11.478;2022-10-22T08:49:20;95344.00;;;15.02;100.00
19457;BME280;9867;48.094;11.478;2022-10-22T08:51:49;95344.09;;;15.26;100.00
19457;BME280;9867;48.094;11.478;2022-10-22T08:54:27;95347.53;;;15.50;100.00
19457;BME280;9867;48.094;11.478;2022-10-22T08:57:15;95344.59;;;15.46;100.00
19457;BME280;9867;48.094;11.478;2022-10-22T08:59:49;95355.84;;;15.52;100.00
19457;BME280;9867;48.094;11.478;2022-10-22T09:02:31;95363.31;;;15.60;100.00
19457;BME280;9867;48.094;11.478;2022-10-22T09:05:15;95363.16;;;15.55;100.00
19457;BME280;9867;48.094;11.478;2022-10-22T09:07:47;95363.00;;;15.68;100.00
19457;BME280;9867;48.094;11.478;2022-10-22T09:10:16;95359.50;;;15.62;100.00
19457;BME280;9867;48.094;11.478;2022-10-22T09:12:46;95371.00;;;15.90;100.00
19457;BME280;9867;48.094;11.478;2022-10-22T09:15:16;95372.94;;;15.94;100.00
19457;BME280;9867;48.094;11.478;2022-10-22T09:17:54;95377.19;;;15.77;100.00
19457;BME280;9867;48.094;11.478;2022-10-22T09:20:27;95377.28;;;15.59;100.00
19457;BME280;9867;48.094;11.478;2022-10-22T09:23:22;95381.31;;;15.66;100.00
19457;BME280;9867;48.094;11.478;2022-10-22T09:25:51;95375.72;;;15.69;100.00
19457;BME280;9867;48.094;11.478;2022-10-22T09:28:23;95381.38;;;15.90;100.00
19457;BME280;9867;48.094;11.478;2022-10-22T09:30:53;95381.34;;;15.78;100.00
19457;BME280;9867;48.094;11.478;2022-10-22T09:33:26;95378.06;;;15.71;100.00
19457;BME280;9867;48.094;11.478;2022-10-22T09:35:58;95383.78;;;15.61;100.00
19457;BME280;9867;48.094;11.478;2022-10-22T09:38:30;95377.59;;;15.62;100.00
19457;BME280;9867;48.094;11.478;2022-10-22T09:41:00;95376.63;;;15.75;100.00
19457;BME280;9867;48.094;11.478;2022-10-22T09:43:31;95383.34;;;15.64;100.00
19457;BME280;9867;48.094;11.478;2022-10-22T09:46:02;95367.44;;;15.49;100.00
19457;BME280;9867;48.094;11.478;2022-10-22T09:48:33;95379.66;;;15.72;100.00
19457;BME280;9867;48.094;11.478;2022-10-22T09:51:05;95355.91;;;15.63;100.00
19457;BME280;9867;48.094;11.478;2022-10-22T09:53:36;95391.31;;;15.63;100.00
19457;BME280;9867;48.094;11.478;2022-10-22T09:56:08;95395.66;;;15.51;100.00
19457;BME280;9867;48.094;11.478;2022-10-22T09:58:42;95399.09;;;15.15;100.00
19457;BME280;9867;48.094;11.478;2022-10-22T10:01:17;95391.53;;;14.83;100.00
19457;BME280;9867;48.094;11.478;2022-10-22T10:03:47;95387.44;;;14.76;100.00
19457;BME280;9867;48.094;11.478;2022-10-22T10:06:17;95392.31;;;14.84;100.00
19457;BME280;9867;48.094;11.478;2022-10-22T10:08:46;95384.84;;;14.94;100.00
19457;BME280;9867;48.094;11.478;2022-10-22T10:11:20;95376.25;;;14.82;100.00
19457;BME280;9867;48.094;11.478;2022-10-22T10:14:04;95379.81;;;14.99;100.00
19457;BME280;9867;48.094;11.478;2022-10-22T10:16:45;95377.94;;;15.06;100.00
19457;BME280;9867;48.094;11.478;2022-10-22T10:19:34;95374.78;;;15.04;100.00
19457;BME280;9867;48.094;11.478;2022-10-22T10:22:13;95375.94;;;15.08;100.00
19457;BME280;9867;48.094;11.478;2022-10-22T10:25:02;95372.94;;;15.11;100.00
19457;BME280;9867;48.094;11.478;2022-10-22T10:27:39;95373.59;;;15.18;100.00
19457;BME280;9867;48.094;11.478;2022-10-22T10:30:12;95380.84;;;15.28;100.00
19457;BME280;9867;48.094;11.478;2022-10-22T10:32:55;95376.41;;;15.47;100.00
19457;BME280;9867;48.094;11.478;2022-10-22T10:35:35;95380.50;;;15.54;100.00
19457;BME280;9867;48.094;11.478;2022-10-22T10:38:17;95377.63;;;15.74;100.00
19457;BME280;9867;48.094;11.478;2022-10-22T10:40:56;95383.59;;;15.75;100.00
19457;BME280;9867;48.094;11.478;2022-10-22T10:43:31;95383.53;;;16.16;100.00
19457;BME280;9867;48.094;11.478;2022-10-22T10:46:10;95382.84;;;16.44;100.00
19457;BME280;9867;48.094;11.478;2022-10-22T10:48:49;95378.56;;;16.73;100.00
19457;BME280;9867;48.094;11.478;2022-10-22T10:51:34;95389.81;;;16.55;100.00
19457;BME280;9867;48.094;11.478;2022-10-22T10:54:14;95374.97;;;16.51;100.00
19457;BME280;9867;48.094;11.478;2022-10-22T10:56:47;95375.56;;;16.29;100.00
19457;BME280;9867;48.094;11.478;2022-10-22T10:59:24;95384.31;;;16.17;100.00
19457;BME280;9867;48.094;11.478;2022-10-22T11:02:15;95376.44;;;16.35;100.00
19457;BME280;9867;48.094;11.478;2022-10-22T11:08:06;95379.53;;;16.84;100.00
19457;BME280;9867;48.094;11.478;2022-10-22T11:10:39;95372.03;;;16.70;100.00
19457;BME280;9867;48.094;11.478;2022-10-22T11:13:14;95368.50;;;16.88;100.00
19457;BME280;9867;48.094;11.478;2022-10-22T11:15:46;95379.78;;;16.82;100.00
19457;BME280;9867;48.094;11.478;2022-10-22T11:18:23;95381.22;;;16.90;100.00
19457;BME280;9867;48.094;11.478;2022-10-22T11:21:02;95380.25;;;17.08;100.00
19457;BME280;9867;48.094;11.478;2022-10-22T11:23:37;95384.06;;;17.17;100.00
19457;BME280;9867;48.094;11.478;2022-10-22T11:26:10;95389.38;;;17.22;100.00
19457;BME280;9867;48.094;11.478;2022-10-22T11:28:44;95394.34;;;17.40;100.00
19457;BME280;9867;48.094;11.478;2022-10-22T11:31:16;95392.88;;;17.44;100.00
19457;BME280;9867;48.094;11.478;2022-10-22T11:33:51;95384.34;;;17.60;100.00
19457;BME280;9867;48.094;11.478;2022-10-22T11:36:36;95397.19;;;17.67;100.00
19457;BME280;9867;48.094;11.478;2022-10-22T11:39:05;95392.72;;;17.79;100.00
19457;BME280;9867;48.094;11.478;2022-10-22T11:41:35;95397.13;;;17.95;100.00
19457;BME280;9867;48.094;11.478;2022-10-22T11:44:14;95386.75;;;18.12;100.00
19457;BME280;9867;48.094;11.478;2022-10-22T11:46:55;95387.63;;;18.56;100.00
19457;BME280;9867;48.094;11.478;2022-10-22T11:49:26;95387.75;;;18.61;100.00
19457;BME280;9867;48.094;11.478;2022-10-22T11:52:22;95381.25;;;18.09;100.00
19457;BME280;9867;48.094;11.478;2022-10-22T11:54:55;95384.06;;;18.07;100.00
19457;BME280;9867;48.094;11.478;2022-10-22T11:57:28;95388.16;;;18.36;100.00
19457;BME280;9867;48.094;11.478;2022-10-22T12:00:09;95397.31;;;18.44;100.00
19457;BME280;9867;48.094;11.478;2022-10-22T12:03:04;95394.75;;;18.27;100.00
19457;BME280;9867;48.094;11.478;2022-10-22T12:05:44;95396.66;;;18.15;100.00
19457;BME280;9867;48.094;11.478;2022-10-22T12:08:20;95384.88;;;18.08;100.00
19457;BME280;9867;48.094;11.478;2022-10-22T12:11:05;95384.06;;;18.40;100.00
19457;BME280;9867;48.094;11.478;2022-10-22T12:14:00;95380.66;;;18.40;100.00
19457;BME280;9867;48.094;11.478;2022-10-22T12:16:35;95376.63;;;18.66;100.00
19457;BME280;9867;48.094;11.478;2022-10-22T12:19:29;95382.25;;;18.41;100.00
19457;BME280;9867;48.094;11.478;2022-10-22T12:22:06;95375.94;;;18.37;100.00
19457;BME280;9867;48.094;11.478;2022-10-22T12:24:40;95375.88;;;18.32;100.00
19457;BME280;9867;48.094;11.478;2022-10-22T12:27:21;95369.78;;;18.43;100.00
19457;BME280;9867;48.094;11.478;2022-10-22T12:29:53;95386.72;;;18.29;100.00
19457;BME280;9867;48.094;11.478;2022-10-22T12:32:22;95372.25;;;18.33;100.00
19457;BME280;9867;48.094;11.478;2022-10-22T12:34:51;95374.34;;;18.53;100.00
19457;BME280;9867;48.094;11.478;2022-10-22T12:37:21;95372.75;;;18.52;100.00
19457;BME280;9867;48.094;11.478;2022-10-22T12:39:50;95366.47;;;18.64;100.00
19457;BME280;9867;48.094;11.478;2022-10-22T12:42:18;95366.47;;;18.86;100.00
19457;BME280;9867;48.094;11.478;2022-10-22T12:44:53;95358.41;;;19.10;100.00
19457;BME280;9867;48.094;11.478;2022-10-22T12:47:21;95366.47;;;19.35;100.00
19457;BME280;9867;48.094;11.478;2022-10-22T12:49:50;95361.53;;;19.33;100.00
19457;BME280;9867;48.094;11.478;2022-10-22T12:52:21;95364.84;;;19.29;100.00
19457;BME280;9867;48.094;11.478;2022-10-22T12:54:51;95351.13;;;19.33;100.00
19457;BME280;9867;48.094;11.478;2022-10-22T12:57:20;95364.41;;;19.59;100.00
19457;BME280;9867;48.094;11.478;2022-10-22T12:59:50;95361.38;;;19.72;100.00
19457;BME280;9867;48.094;11.478;2022-10-22T13:02:21;95362.25;;;19.83;100.00
19457;BME280;9867;48.094;11.478;2022-10-22T13:05:23;95361.59;;;19.43;100.00
19457;BME280;9867;48.094;11.478;2022-10-22T13:08:01;95356.38;;;19.12;100.00
19457;BME280;9867;48.094;11.478;2022-10-22T13:10:31;95350.41;;;19.16;100.00
19457;BME280;9867;48.094;11.478;2022-10-22T13:13:00;95355.84;;;19.36;100.00
19457;BME280;9867;48.094;11.478;2022-10-22T13:15:35;95350.03;;;19.29;100.00
19457;BME280;9867;48.094;11.478;2022-10-22T13:18:13;95351.50;;;19.47;100.00
19457;BME280;9867;48.094;11.478;2022-10-22T13:20:53;95348.75;;;19.05;100.00